sensor_id;sensor_type;location;lat;lon;timestamp;temperature;humidity
8103;DHT22;4094;49.948;11.574;2023-11-21T00:01:34;11.90;78.40
8103;DHT22;4094;49.948;11.574;2023-11-21T00:04:03;11.90;78.50
8103;DHT22;4094;49.948;11.574;2023-11-21T00:06:35;11.90;78.40
8103;DHT22;4094;49.948;11.574;2023-11-21T00:09:05;11.90;78.30
8103;DHT22;4094;49.948;11.574;2023-11-21T00:11:36;11.90;78.30
8103;DHT22;4094;49.948;11.574;2023-11-21T00:14:06;11.90;78.20
8103;DHT22;4094;49.948;11.574;2023-11-21T00:16:36;11.90;78.10
8103;DHT22;4094;49.948;11.574;2023-11-21T00:19:05;11.90;78.20
8103;DHT22;4094;49.948;11.574;2023-11-21T00:21:34;11.90;78.10
8103;DHT22;4094;49.948;11.574;2023-11-21T00:24:05;12.00;78.90
8103;DHT22;4094;49.948;11.574;2023-11-21T00:26:35;12.00;78.10
8103;DHT22;4094;49.948;11.574;2023-11-21T00:29:06;11.90;78.00
8103;DHT22;4094;49.948;11.574;2023-11-21T00:31:36;11.90;78.00
8103;DHT22;4094;49.948;11.574;2023-11-21T00:34:06;11.90;77.80
8103;DHT22;4094;49.948;11.574;2023-11-21T00:36:35;11.90;78.00
8103;DHT22;4094;49.948;11.574;2023-11-21T00:39:06;11.90;78.00
8103;DHT22;4094;49.948;11.574;2023-11-21T00:41:36;11.90;78.10
8103;DHT22;4094;49.948;11.574;2023-11-21T00:44:05;11.90;78.10
8103;DHT22;4094;49.948;11.574;2023-11-21T00:46:34;11.90;78.00
8103;DHT22;4094;49.948;11.574;2023-11-21T00:49:03;11.90;78.10
8103;DHT22;4094;49.948;11.574;2023-11-21T00:51:33;11.90;78.00
8103;DHT22;4094;49.948;11.574;2023-11-21T00:54:02;11.90;78.10
8103;DHT22;4094;49.948;11.574;2023-11-21T00:56:32;11.90;78.10
8103;DHT22;4094;49.948;11.574;2023-11-21T00:59:01;11.90;78.10
8103;DHT22;4094;49.948;11.574;2023-11-21T01:01:31;11.90;78.20
8103;DHT22;4094;49.948;11.574;2023-11-21T01:04:00;11.90;78.10
8103;DHT22;4094;49.948;11.574;2023-11-21T01:06:30;11.90;78.10
8103;DHT22;4094;49.948;11.574;2023-11-21T01:09:00;11.90;78.10
8103;DHT22;4094;49.948;11.574;2023-11-21T01:11:29;11.80;78.00
8103;DHT22;4094;49.948;11.574;2023-11-21T01:14:09;11.90;78.10
8103;DHT22;4094;49.948;11.574;2023-11-21T01:16:38;11.80;78.30
8103;DHT22;4094;49.948;11.574;2023-11-21T01:19:08;11.90;78.40
8103;DHT22;4094;49.948;11.574;2023-11-21T01:21:37;11.80;78.30
8103;DHT22;4094;49.948;11.574;2023-11-21T01:24:07;11.80;78.20
8103;DHT22;4094;49.948;11.574;2023-11-21T01:26:37;11.80;78.20
8103;DHT22;4094;49.948;11.574;2023-11-21T01:29:06;11.80;78.30
8103;DHT22;4094;49.948;11.574;2023-11-21T01:31:37;11.80;78.40
8103;DHT22;4094;49.948;11.574;2023-11-21T01:34:06;11.80;78.50
8103;DHT22;4094;49.948;11.574;2023-11-21T01:36:35;11.80;78.50
8103;DHT22;4094;49.948;11.574;2023-11-21T01:39:06;11.80;78.50
8103;DHT22;4094;49.948;11.574;2023-11-21T01:41:36;11.80;78.30
8103;DHT22;4094;49.948;11.574;2023-11-21T01:44:05;11.80;78.20
8103;DHT22;4094;49.948;11.574;2023-11-21T01:46:39;11.80;78.30
8103;DHT22;4094;49.948;11.574;2023-11-21T01:49:08;11.80;78.40
8103;DHT22;4094;49.948;11.574;2023-11-21T01:51:41;11.80;78.40
8103;DHT22;4094;49.948;11.574;2023-11-21T01:54:12;11.80;78.10
8103;DHT22;4094;49.948;11.574;2023-11-21T01:56:45;11.70;78.00
8103;DHT22;4094;49.948;11.574;2023-11-21T01:59:18;11.70;78.00
8103;DHT22;4094;49.948;11.574;2023-11-21T02:01:50;11.70;78.10
8103;DHT22;4094;49.948;11.574;2023-11-21T02:04:19;11.70;78.30
8103;DHT22;4094;49.948;11.574;2023-11-21T02:06:49;11.70;78.40
8103;DHT22;4094;49.948;11.574;2023-11-21T02:09:25;11.70;78.50
8103;DHT22;4094;49.948;11.574;2023-11-21T02:11:54;11.70;78.70
8103;DHT22;4094;49.948;11.574;2023-11-21T02:14:26;11.70;78.60
8103;DHT22;4094;49.948;11.574;2023-11-21T02:16:57;11.70;78.50
8103;DHT22;4094;49.948;11.574;2023-11-21T02:19:26;11.70;78.50
8103;DHT22;4094;49.948;11.574;2023-11-21T02:21:59;11.70;78.60
8103;DHT22;4094;49.948;11.574;2023-11-21T02:24:32;11.70;78.60
8103;DHT22;4094;49.948;11.574;2023-11-21T02:27:02;11.70;78.50
8103;DHT22;4094;49.948;11.574;2023-11-21T02:29:31;11.70;78.50
8103;DHT22;4094;49.948;11.574;2023-11-21T02:31:59;11.80;78.60
8103;DHT22;4094;49.948;11.574;2023-11-21T02:34:28;11.80;78.60
8103;DHT22;4094;49.948;11.574;2023-11-21T02:36:57;11.70;78.70
8103;DHT22;4094;49.948;11.574;2023-11-21T02:39:27;11.70;78.70
8103;DHT22;4094;49.948;11.574;2023-11-21T02:41:59;11.80;78.60
8103;DHT22;4094;49.948;11.574;2023-11-21T02:44:27;11.70;78.60
8103;DHT22;4094;49.948;11.574;2023-11-21T02:46:57;11.80;78.60
8103;DHT22;4094;49.948;11.574;2023-11-21T02:49:26;11.80;78.40
8103;DHT22;4094;49.948;11.574;2023-11-21T02:51:56;11.70;78.30
8103;DHT22;4094;49.948;11.574;2023-11-21T02:54:25;11.70;78.60
8103;DHT22;4094;49.948;11.574;2023-11-21T02:56:54;11.70;78.70
8103;DHT22;4094;49.948;11.574;2023-11-21T02:59:25;11.70;78.70
8103;DHT22;4094;49.948;11.574;2023-11-21T03:01:54;11.70;78.70
8103;DHT22;4094;49.948;11.574;2023-11-21T03:04:24;11.70;78.70
8103;DHT22;4094;49.948;11.574;2023-11-21T03:06:54;11.70;78.60
8103;DHT22;4094;49.948;11.574;2023-11-21T03:09:23;11.70;78.80
8103;DHT22;4094;49.948;11.574;2023-11-21T03:11:54;11.70;78.90
8103;DHT22;4094;49.948;11.574;2023-11-21T03:14:25;11.70;78.90
8103;DHT22;4094;49.948;11.574;2023-11-21T03:16:54;11.70;78.90
8103;DHT22;4094;49.948;11.574;2023-11-21T03:19:23;11.70;78.90
8103;DHT22;4094;49.948;11.574;2023-11-21T03:21:52;11.70;79.00
8103;DHT22;4094;49.948;11.574;2023-11-21T03:24:22;11.70;79.00
8103;DHT22;4094;49.948;11.574;2023-11-21T03:26:51;11.70;78.90
8103;DHT22;4094;49.948;11.574;2023-11-21T03:29:20;11.70;79.70
8103;DHT22;4094;49.948;11.574;2023-11-21T03:31:51;11.70;79.00
8103;DHT22;4094;49.948;11.574;2023-11-21T03:34:24;11.70;79.10
8103;DHT22;4094;49.948;11.574;2023-11-21T03:36:55;11.70;79.20
8103;DHT22;4094;49.948;11.574;2023-11-21T03:39:24;11.70;79.10
8103;DHT22;4094;49.948;11.574;2023-11-21T03:41:54;11.70;79.10
8103;DHT22;4094;49.948;11.574;2023-11-21T03:44:24;11.70;79.00
8103;DHT22;4094;49.948;11.574;2023-11-21T03:46:55;11.70;79.00
8103;DHT22;4094;49.948;11.574;2023-11-21T03:49:24;11.70;79.00
8103;DHT22;4094;49.948;11.574;2023-11-21T03:51:53;11.70;79.10
8103;DHT22;4094;49.948;11.574;2023-11-21T03:54:22;11.70;79.10
8103;DHT22;4094;49.948;11.574;2023-11-21T03:56:51;11.70;79.20
8103;DHT22;4094;49.948;11.574;2023-11-21T03:59:21;11.70;79.10
8103;DHT22;4094;49.948;11.574;2023-11-21T04:01:52;11.70;79.10
8103;DHT22;4094;49.948;11.574;2023-11-21T04:04:22;11.70;79.00
8103;DHT22;4094;49.948;11.574;2023-11-21T04:06:51;11.70;79.00
8103;DHT22;4094;49.948;11.574;2023-11-21T04:09:21;11.70;78.90
8103;DHT22;4094;49.948;11.574;2023-11-21T04:11:53;11.70;79.00
8103;DHT22;4094;49.948;11.574;2023-11-21T04:14:23;11.60;79.10
8103;DHT22;4094;49.948;11.574;2023-11-21T04:16:52;11.70;79.30
8103;DHT22;4094;49.948;11.574;2023-11-21T04:19:24;11.70;79.40
8103;DHT22;4094;49.948;11.574;2023-11-21T04:21:53;11.60;79.40
8103;DHT22;4094;49.948;11.574;2023-11-21T04:24:22;11.70;79.60
8103;DHT22;4094;49.948;11.574;2023-11-21T04:26:52;11.60;79.50
8103;DHT22;4094;49.948;11.574;2023-11-21T04:29:21;11.70;79.60
8103;DHT22;4094;49.948;11.574;2023-11-21T04:31:50;11.70;79.60
8103;DHT22;4094;49.948;11.574;2023-11-21T04:34:19;11.70;79.60
8103;DHT22;4094;49.948;11.574;2023-11-21T04:36:50;11.70;79.60
8103;DHT22;4094;49.948;11.574;2023-11-21T04:39:19;11.70;79.60
8103;DHT22;4094;49.948;11.574;2023-11-21T04:41:48;11.70;79.60
8103;DHT22;4094;49.948;11.574;2023-11-21T04:44:17;11.70;79.60
8103;DHT22;4094;49.948;11.574;2023-11-21T04:46:47;11.70;79.60
8103;DHT22;4094;49.948;11.574;2023-11-21T04:49:16;11.70;79.60
8103;DHT22;4094;49.948;11.574;2023-11-21T04:51:45;11.70;79.60
8103;DHT22;4094;49.948;11.574;2023-11-21T04:54:16;11.70;79.60
8103;DHT22;4094;49.948;11.574;2023-11-21T04:56:45;11.70;79.60
8103;DHT22;4094;49.948;11.574;2023-11-21T04:59:14;11.70;79.60
8103;DHT22;4094;49.948;11.574;2023-11-21T05:01:43;11.70;79.40
8103;DHT22;4094;49.948;11.574;2023-11-21T05:04:12;11.70;79.40
8103;DHT22;4094;49.948;11.574;2023-11-21T05:06:42;11.70;79.40
8103;DHT22;4094;49.948;11.574;2023-11-21T05:09:12;11.70;79.50
8103;DHT22;4094;49.948;11.574;2023-11-21T05:11:42;11.70;79.60
8103;DHT22;4094;49.948;11.574;2023-11-21T05:14:12;11.70;79.60
8103;DHT22;4094;49.948;11.574;2023-11-21T05:16:41;11.70;79.70
8103;DHT22;4094;49.948;11.574;2023-11-21T05:19:11;11.70;79.70
8103;DHT22;4094;49.948;11.574;2023-11-21T05:21:41;11.70;79.80
8103;DHT22;4094;49.948;11.574;2023-11-21T05:24:10;11.70;79.70
8103;DHT22;4094;49.948;11.574;2023-11-21T05:26:39;11.70;79.70
8103;DHT22;4094;49.948;11.574;2023-11-21T05:29:09;11.70;79.60
8103;DHT22;4094;49.948;11.574;2023-11-21T05:31:39;11.70;79.60
8103;DHT22;4094;49.948;11.574;2023-11-21T05:34:08;11.70;79.70
8103;DHT22;4094;49.948;11.574;2023-11-21T05:36:38;11.70;79.70
8103;DHT22;4094;49.948;11.574;2023-11-21T05:39:07;11.70;79.70
8103;DHT22;4094;49.948;11.574;2023-11-21T05:41:36;11.70;79.70
8103;DHT22;4094;49.948;11.574;2023-11-21T05:44:05;11.70;79.80
8103;DHT22;4094;49.948;11.574;2023-11-21T05:46:36;11.70;79.90
8103;DHT22;4094;49.948;11.574;2023-11-21T05:49:05;11.70;79.90
8103;DHT22;4094;49.948;11.574;2023-11-21T05:51:36;11.70;80.00
8103;DHT22;4094;49.948;11.574;2023-11-21T05:54:05;11.70;80.00
8103;DHT22;4094;49.948;11.574;2023-11-21T05:56:35;11.70;80.00
8103;DHT22;4094;49.948;11.574;2023-11-21T05:59:05;11.70;80.00
8103;DHT22;4094;49.948;11.574;2023-11-21T06:01:36;11.70;80.30
8103;DHT22;4094;49.948;11.574;2023-11-21T06:04:06;11.70;80.30
8103;DHT22;4094;49.948;11.574;2023-11-21T06:06:36;11.70;80.40
8103;DHT22;4094;49.948;11.574;2023-11-21T06:09:05;11.70;80.50
8103;DHT22;4094;49.948;11.574;2023-11-21T06:11:37;11.70;80.60
8103;DHT22;4094;49.948;11.574;2023-11-21T06:14:06;11.70;80.70
8103;DHT22;4094;49.948;11.574;2023-11-21T06:16:38;11.70;81.00
8103;DHT22;4094;49.948;11.574;2023-11-21T06:19:08;11.70;81.00
8103;DHT22;4094;49.948;11.574;2023-11-21T06:21:38;11.60;80.90
8103;DHT22;4094;49.948;11.574;2023-11-21T06:24:08;11.60;80.80
8103;DHT22;4094;49.948;11.574;2023-11-21T06:26:37;11.70;81.00
8103;DHT22;4094;49.948;11.574;2023-11-21T06:29:06;11.60;81.00
8103;DHT22;4094;49.948;11.574;2023-11-21T06:31:37;11.60;80.90
8103;DHT22;4094;49.948;11.574;2023-11-21T06:34:08;11.60;81.00
8103;DHT22;4094;49.948;11.574;2023-11-21T06:36:37;11.60;81.10
8103;DHT22;4094;49.948;11.574;2023-11-21T06:39:07;11.60;81.10
8103;DHT22;4094;49.948;11.574;2023-11-21T06:41:37;11.60;81.10
8103;DHT22;4094;49.948;11.574;2023-11-21T06:44:34;11.60;81.20
8103;DHT22;4094;49.948;11.574;2023-11-21T06:47:06;11.60;81.10
8103;DHT22;4094;49.948;11.574;2023-11-21T06:49:36;11.60;81.20
8103;DHT22;4094;49.948;11.574;2023-11-21T06:52:06;11.60;81.20
8103;DHT22;4094;49.948;11.574;2023-11-21T06:54:37;11.60;81.10
8103;DHT22;4094;49.948;11.574;2023-11-21T06:57:06;11.60;81.80
8103;DHT22;4094;49.948;11.574;2023-11-21T06:59:36;11.60;81.20
8103;DHT22;4094;49.948;11.574;2023-11-21T07:02:07;11.60;81.20
8103;DHT22;4094;49.948;11.574;2023-11-21T07:04:37;11.70;81.30
8103;DHT22;4094;49.948;11.574;2023-11-21T07:07:07;11.70;81.20
8103;DHT22;4094;49.948;11.574;2023-11-21T07:09:36;11.70;81.20
8103;DHT22;4094;49.948;11.574;2023-11-21T07:12:06;11.70;81.20
8103;DHT22;4094;49.948;11.574;2023-11-21T07:14:36;11.70;81.20
8103;DHT22;4094;49.948;11.574;2023-11-21T07:17:08;11.70;81.20
8103;DHT22;4094;49.948;11.574;2023-11-21T07:19:37;11.70;81.20
8103;DHT22;4094;49.948;11.574;2023-11-21T07:22:06;11.70;81.20
8103;DHT22;4094;49.948;11.574;2023-11-21T07:24:36;11.70;81.30
8103;DHT22;4094;49.948;11.574;2023-11-21T07:27:05;11.70;81.30
8103;DHT22;4094;49.948;11.574;2023-11-21T07:29:34;11.70;81.20
8103;DHT22;4094;49.948;11.574;2023-11-21T07:32:04;11.70;81.20
8103;DHT22;4094;49.948;11.574;2023-11-21T07:34:35;11.70;81.20
8103;DHT22;4094;49.948;11.574;2023-11-21T07:37:04;11.70;82.00
8103;DHT22;4094;49.948;11.574;2023-11-21T07:39:33;11.70;81.20
8103;DHT22;4094;49.948;11.574;2023-11-21T07:42:03;11.70;81.30
8103;DHT22;4094;49.948;11.574;2023-11-21T07:44:32;11.80;81.40
8103;DHT22;4094;49.948;11.574;2023-11-21T07:47:02;11.70;81.30
8103;DHT22;4094;49.948;11.574;2023-11-21T07:49:32;11.80;81.20
8103;DHT22;4094;49.948;11.574;2023-11-21T07:52:04;11.80;81.30
8103;DHT22;4094;49.948;11.574;2023-11-21T07:54:33;11.80;81.20
8103;DHT22;4094;49.948;11.574;2023-11-21T07:57:03;11.80;81.20
8103;DHT22;4094;49.948;11.574;2023-11-21T07:59:33;11.80;81.30
8103;DHT22;4094;49.948;11.574;2023-11-21T08:02:02;11.80;81.30
8103;DHT22;4094;49.948;11.574;2023-11-21T08:04:32;11.80;81.40
8103;DHT22;4094;49.948;11.574;2023-11-21T08:07:03;11.80;81.30
8103;DHT22;4094;49.948;11.574;2023-11-21T08:09:33;11.80;81.30
8103;DHT22;4094;49.948;11.574;2023-11-21T08:12:02;11.80;81.30
8103;DHT22;4094;49.948;11.574;2023-11-21T08:14:32;11.80;81.30
8103;DHT22;4094;49.948;11.574;2023-11-21T08:17:01;11.80;81.30
8103;DHT22;4094;49.948;11.574;2023-11-21T08:19:32;11.80;81.40
8103;DHT22;4094;49.948;11.574;2023-11-21T08:22:04;11.80;81.50
8103;DHT22;4094;49.948;11.574;2023-11-21T08:24:35;11.80;81.50
8103;DHT22;4094;49.948;11.574;2023-11-21T08:27:05;11.90;81.50
8103;DHT22;4094;49.948;11.574;2023-11-21T08:29:34;11.90;81.50
8103;DHT22;4094;49.948;11.574;2023-11-21T08:32:05;11.90;82.10
8103;DHT22;4094;49.948;11.574;2023-11-21T08:34:34;11.90;81.30
8103;DHT22;4094;49.948;11.574;2023-11-21T08:37:05;11.90;81.30
8103;DHT22;4094;49.948;11.574;2023-11-21T08:39:36;11.90;81.30
8103;DHT22;4094;49.948;11.574;2023-11-21T08:42:06;12.00;81.40
8103;DHT22;4094;49.948;11.574;2023-11-21T08:44:36;12.00;82.20
8103;DHT22;4094;49.948;11.574;2023-11-21T08:47:07;12.00;81.20
8103;DHT22;4094;49.948;11.574;2023-11-21T08:49:37;12.00;81.20
8103;DHT22;4094;49.948;11.574;2023-11-21T08:52:08;12.00;81.20
8103;DHT22;4094;49.948;11.574;2023-11-21T08:54:37;12.10;81.20
8103;DHT22;4094;49.948;11.574;2023-11-21T08:57:06;12.10;81.20
8103;DHT22;4094;49.948;11.574;2023-11-21T08:59:36;12.10;81.30
8103;DHT22;4094;49.948;11.574;2023-11-21T09:02:05;12.10;81.30
8103;DHT22;4094;49.948;11.574;2023-11-21T09:04:36;12.10;81.10
8103;DHT22;4094;49.948;11.574;2023-11-21T09:07:08;12.10;81.10
8103;DHT22;4094;49.948;11.574;2023-11-21T09:09:38;12.20;81.30
8103;DHT22;4094;49.948;11.574;2023-11-21T09:12:07;12.20;81.30
8103;DHT22;4094;49.948;11.574;2023-11-21T09:14:40;12.20;81.30
8103;DHT22;4094;49.948;11.574;2023-11-21T09:17:09;12.30;81.30
8103;DHT22;4094;49.948;11.574;2023-11-21T09:19:40;12.30;81.20
8103;DHT22;4094;49.948;11.574;2023-11-21T09:22:11;12.40;81.30
8103;DHT22;4094;49.948;11.574;2023-11-21T09:24:40;12.40;81.10
8103;DHT22;4094;49.948;11.574;2023-11-21T09:27:10;12.50;81.00
8103;DHT22;4094;49.948;11.574;2023-11-21T09:29:40;12.50;80.60
8103;DHT22;4094;49.948;11.574;2023-11-21T09:32:09;12.50;80.60
8103;DHT22;4094;49.948;11.574;2023-11-21T09:34:39;12.60;80.50
8103;DHT22;4094;49.948;11.574;2023-11-21T09:37:08;12.60;80.20
8103;DHT22;4094;49.948;11.574;2023-11-21T09:39:38;12.60;79.90
8103;DHT22;4094;49.948;11.574;2023-11-21T09:42:11;12.60;79.80
8103;DHT22;4094;49.948;11.574;2023-11-21T09:44:48;12.60;79.80
8103;DHT22;4094;49.948;11.574;2023-11-21T09:47:23;12.60;79.90
8103;DHT22;4094;49.948;11.574;2023-11-21T09:49:53;12.60;79.90
8103;DHT22;4094;49.948;11.574;2023-11-21T09:52:26;12.60;79.90
8103;DHT22;4094;49.948;11.574;2023-11-21T09:54:56;12.60;80.00
8103;DHT22;4094;49.948;11.574;2023-11-21T09:57:27;12.60;80.20
8103;DHT22;4094;49.948;11.574;2023-11-21T09:59:58;12.60;80.20
8103;DHT22;4094;49.948;11.574;2023-11-21T10:02:33;12.70;80.30
8103;DHT22;4094;49.948;11.574;2023-11-21T10:05:04;12.70;80.20
8103;DHT22;4094;49.948;11.574;2023-11-21T10:07:34;12.70;79.80
8103;DHT22;4094;49.948;11.574;2023-11-21T10:10:07;12.80;79.80
8103;DHT22;4094;49.948;11.574;2023-11-21T10:12:38;12.80;79.90
8103;DHT22;4094;49.948;11.574;2023-11-21T10:15:09;12.80;79.80
8103;DHT22;4094;49.948;11.574;2023-11-21T10:17:40;12.90;79.70
8103;DHT22;4094;49.948;11.574;2023-11-21T10:20:13;12.90;79.40
8103;DHT22;4094;49.948;11.574;2023-11-21T10:22:43;13.00;79.20
8103;DHT22;4094;49.948;11.574;2023-11-21T10:25:15;13.10;79.00
8103;DHT22;4094;49.948;11.574;2023-11-21T10:27:48;13.10;78.60
8103;DHT22;4094;49.948;11.574;2023-11-21T10:30:21;13.10;78.40
8103;DHT22;4094;49.948;11.574;2023-11-21T10:32:50;13.10;78.20
8103;DHT22;4094;49.948;11.574;2023-11-21T10:35:20;13.20;78.20
8103;DHT22;4094;49.948;11.574;2023-11-21T10:38:00;13.20;78.20
8103;DHT22;4094;49.948;11.574;2023-11-21T10:40:32;13.20;77.90
8103;DHT22;4094;49.948;11.574;2023-11-21T10:43:06;13.20;77.80
8103;DHT22;4094;49.948;11.574;2023-11-21T10:45:37;13.30;77.40
8103;DHT22;4094;49.948;11.574;2023-11-21T10:48:06;13.30;77.10
8103;DHT22;4094;49.948;11.574;2023-11-21T10:50:37;13.30;76.90
8103;DHT22;4094;49.948;11.574;2023-11-21T10:53:06;13.20;76.60
8103;DHT22;4094;49.948;11.574;2023-11-21T10:55:37;13.20;76.70
8103;DHT22;4094;49.948;11.574;2023-11-21T10:58:07;13.40;78.50
8103;DHT22;4094;49.948;11.574;2023-11-21T11:00:40;13.70;78.80
8103;DHT22;4094;49.948;11.574;2023-11-21T11:03:09;14.10;78.70
8103;DHT22;4094;49.948;11.574;2023-11-21T11:05:44;14.60;78.60
8103;DHT22;4094;49.948;11.574;2023-11-21T11:08:21;15.30;78.00
8103;DHT22;4094;49.948;11.574;2023-11-21T11:10:56;16.10;76.20
8103;DHT22;4094;49.948;11.574;2023-11-21T11:13:26;16.80;73.60
8103;DHT22;4094;49.948;11.574;2023-11-21T11:15:58;17.50;72.30
8103;DHT22;4094;49.948;11.574;2023-11-21T11:18:29;18.20;70.00
8103;DHT22;4094;49.948;11.574;2023-11-21T11:21:07;18.80;67.80
8103;DHT22;4094;49.948;11.574;2023-11-21T11:23:48;19.20;65.10
8103;DHT22;4094;49.948;11.574;2023-11-21T11:26:29;19.50;62.60
8103;DHT22;4094;49.948;11.574;2023-11-21T11:29:07;19.60;59.90
8103;DHT22;4094;49.948;11.574;2023-11-21T11:31:42;19.50;59.20
8103;DHT22;4094;49.948;11.574;2023-11-21T11:34:23;19.40;60.10
8103;DHT22;4094;49.948;11.574;2023-11-21T11:36:58;19.50;60.20
8103;DHT22;4094;49.948;11.574;2023-11-21T11:39:34;19.80;60.10
8103;DHT22;4094;49.948;11.574;2023-11-21T11:42:07;20.20;59.90
8103;DHT22;4094;49.948;11.574;2023-11-21T11:44:50;20.70;59.00
8103;DHT22;4094;49.948;11.574;2023-11-21T11:47:26;21.10;57.50
8103;DHT22;4094;49.948;11.574;2023-11-21T11:50:02;21.50;57.60
8103;DHT22;4094;49.948;11.574;2023-11-21T11:52:42;21.90;56.10
8103;DHT22;4094;49.948;11.574;2023-11-21T11:55:13;22.30;55.50
8103;DHT22;4094;49.948;11.574;2023-11-21T11:57:48;22.60;54.60
8103;DHT22;4094;49.948;11.574;2023-11-21T12:00:20;22.70;53.30
8103;DHT22;4094;49.948;11.574;2023-11-21T12:02:57;22.70;53.10
8103;DHT22;4094;49.948;11.574;2023-11-21T12:05:27;22.70;52.20
8103;DHT22;4094;49.948;11.574;2023-11-21T12:07:57;22.50;51.50
8103;DHT22;4094;49.948;11.574;2023-11-21T12:10:28;22.20;51.40
8103;DHT22;4094;49.948;11.574;2023-11-21T12:13:00;21.80;51.10
8103;DHT22;4094;49.948;11.574;2023-11-21T12:15:29;21.30;51.00
8103;DHT22;4094;49.948;11.574;2023-11-21T12:17:59;20.80;51.80
8103;DHT22;4094;49.948;11.574;2023-11-21T12:20:28;20.20;52.00
8103;DHT22;4094;49.948;11.574;2023-11-21T12:23:00;19.60;52.80
8103;DHT22;4094;49.948;11.574;2023-11-21T12:25:30;19.10;53.50
8103;DHT22;4094;49.948;11.574;2023-11-21T12:28:02;18.70;54.50
8103;DHT22;4094;49.948;11.574;2023-11-21T12:30:34;18.20;55.20
8103;DHT22;4094;49.948;11.574;2023-11-21T12:33:04;17.80;55.50
8103;DHT22;4094;49.948;11.574;2023-11-21T12:35:35;17.50;56.30
8103;DHT22;4094;49.948;11.574;2023-11-21T12:38:05;17.10;57.20
8103;DHT22;4094;49.948;11.574;2023-11-21T12:40:37;16.90;57.90
8103;DHT22;4094;49.948;11.574;2023-11-21T12:43:08;16.70;58.30
8103;DHT22;4094;49.948;11.574;2023-11-21T12:45:37;16.60;58.60
8103;DHT22;4094;49.948;11.574;2023-11-21T12:48:06;16.50;58.70
8103;DHT22;4094;49.948;11.574;2023-11-21T12:50:38;16.30;58.80
8103;DHT22;4094;49.948;11.574;2023-11-21T12:53:09;16.10;58.80
8103;DHT22;4094;49.948;11.574;2023-11-21T12:55:40;16.00;58.80
8103;DHT22;4094;49.948;11.574;2023-11-21T12:58:11;15.80;59.10
8103;DHT22;4094;49.948;11.574;2023-11-21T13:00:44;15.60;59.70
8103;DHT22;4094;49.948;11.574;2023-11-21T13:03:14;15.50;60.20
8103;DHT22;4094;49.948;11.574;2023-11-21T13:05:47;15.30;60.70
8103;DHT22;4094;49.948;11.574;2023-11-21T13:08:20;15.20;61.10
8103;DHT22;4094;49.948;11.574;2023-11-21T13:10:52;15.00;61.60
8103;DHT22;4094;49.948;11.574;2023-11-21T13:13:25;14.90;62.10
8103;DHT22;4094;49.948;11.574;2023-11-21T13:15:59;14.80;62.40
8103;DHT22;4094;49.948;11.574;2023-11-21T13:18:33;14.70;62.80
8103;DHT22;4094;49.948;11.574;2023-11-21T13:21:05;14.60;63.50
8103;DHT22;4094;49.948;11.574;2023-11-21T13:23:42;14.50;63.80
8103;DHT22;4094;49.948;11.574;2023-11-21T13:26:13;14.40;64.40
8103;DHT22;4094;49.948;11.574;2023-11-21T13:28:45;14.30;65.00
8103;DHT22;4094;49.948;11.574;2023-11-21T13:31:17;14.20;65.50
8103;DHT22;4094;49.948;11.574;2023-11-21T13:33:58;14.10;65.70
8103;DHT22;4094;49.948;11.574;2023-11-21T13:36:33;14.10;66.50
8103;DHT22;4094;49.948;11.574;2023-11-21T13:39:04;14.00;66.30
8103;DHT22;4094;49.948;11.574;2023-11-21T13:41:36;13.90;66.80
8103;DHT22;4094;49.948;11.574;2023-11-21T13:44:08;13.90;66.90
8103;DHT22;4094;49.948;11.574;2023-11-21T13:46:44;13.80;66.90
8103;DHT22;4094;49.948;11.574;2023-11-21T13:49:14;13.80;67.20
8103;DHT22;4094;49.948;11.574;2023-11-21T13:51:44;13.80;66.90
8103;DHT22;4094;49.948;11.574;2023-11-21T13:54:16;13.80;67.80
8103;DHT22;4094;49.948;11.574;2023-11-21T13:56:48;13.70;67.80
8103;DHT22;4094;49.948;11.574;2023-11-21T13:59:19;13.70;68.00
8103;DHT22;4094;49.948;11.574;2023-11-21T14:01:51;13.70;68.20
8103;DHT22;4094;49.948;11.574;2023-11-21T14:04:25;13.70;68.20
8103;DHT22;4094;49.948;11.574;2023-11-21T14:07:14;13.70;68.10
8103;DHT22;4094;49.948;11.574;2023-11-21T14:09:54;13.70;68.30
8103;DHT22;4094;49.948;11.574;2023-11-21T14:12:24;13.70;68.30
8103;DHT22;4094;49.948;11.574;2023-11-21T14:14:54;13.60;68.40
8103;DHT22;4094;49.948;11.574;2023-11-21T14:17:23;13.60;68.60
8103;DHT22;4094;49.948;11.574;2023-11-21T14:19:53;13.50;68.60
8103;DHT22;4094;49.948;11.574;2023-11-21T14:22:24;13.50;68.50
8103;DHT22;4094;49.948;11.574;2023-11-21T14:24:54;13.50;68.40
8103;DHT22;4094;49.948;11.574;2023-11-21T14:27:26;13.50;68.30
8103;DHT22;4094;49.948;11.574;2023-11-21T14:29:58;13.50;68.50
8103;DHT22;4094;49.948;11.574;2023-11-21T14:32:27;13.40;68.60
8103;DHT22;4094;49.948;11.574;2023-11-21T14:34:56;13.40;68.40
8103;DHT22;4094;49.948;11.574;2023-11-21T14:37:26;13.40;68.40
8103;DHT22;4094;49.948;11.574;2023-11-21T14:39:55;13.40;68.40
8103;DHT22;4094;49.948;11.574;2023-11-21T14:42:25;13.30;68.60
8103;DHT22;4094;49.948;11.574;2023-11-21T14:44:58;13.30;68.70
8103;DHT22;4094;49.948;11.574;2023-11-21T14:47:33;13.30;68.90
8103;DHT22;4094;49.948;11.574;2023-11-21T14:50:02;13.30;68.90
8103;DHT22;4094;49.948;11.574;2023-11-21T14:52:51;13.30;68.80
8103;DHT22;4094;49.948;11.574;2023-11-21T14:55:25;13.20;68.50
8103;DHT22;4094;49.948;11.574;2023-11-21T14:57:59;13.20;68.80
8103;DHT22;4094;49.948;11.574;2023-11-21T15:00:33;13.20;68.80
8103;DHT22;4094;49.948;11.574;2023-11-21T15:03:12;13.20;68.80
8103;DHT22;4094;49.948;11.574;2023-11-21T15:06:04;13.20;68.90
8103;DHT22;4094;49.948;11.574;2023-11-21T15:08:51;13.20;68.90
8103;DHT22;4094;49.948;11.574;2023-11-21T15:11:47;13.10;68.80
8103;DHT22;4094;49.948;11.574;2023-11-21T15:14:17;13.10;68.90
8103;DHT22;4094;49.948;11.574;2023-11-21T15:16:52;13.00;68.80
8103;DHT22;4094;49.948;11.574;2023-11-21T15:19:27;13.00;69.00
8103;DHT22;4094;49.948;11.574;2023-11-21T15:21:59;13.00;69.00
8103;DHT22;4094;49.948;11.574;2023-11-21T15:24:28;12.90;69.10
8103;DHT22;4094;49.948;11.574;2023-11-21T15:26:58;12.90;69.30
8103;DHT22;4094;49.948;11.574;2023-11-21T15:29:28;12.90;69.50
8103;DHT22;4094;49.948;11.574;2023-11-21T15:31:58;12.90;69.40
8103;DHT22;4094;49.948;11.574;2023-11-21T15:34:28;12.80;69.70
8103;DHT22;4094;49.948;11.574;2023-11-21T15:36:59;12.80;69.90
8103;DHT22;4094;49.948;11.574;2023-11-21T15:39:28;12.80;69.90
8103;DHT22;4094;49.948;11.574;2023-11-21T15:41:59;12.80;69.90
8103;DHT22;4094;49.948;11.574;2023-11-21T15:44:28;12.70;69.70
8103;DHT22;4094;49.948;11.574;2023-11-21T15:47:02;12.80;69.80
8103;DHT22;4094;49.948;11.574;2023-11-21T15:49:32;12.70;69.90
8103;DHT22;4094;49.948;11.574;2023-11-21T15:52:05;12.70;69.80
8103;DHT22;4094;49.948;11.574;2023-11-21T15:54:38;12.70;70.00
8103;DHT22;4094;49.948;11.574;2023-11-21T15:57:08;12.70;70.00
8103;DHT22;4094;49.948;11.574;2023-11-21T15:59:40;12.70;70.20
8103;DHT22;4094;49.948;11.574;2023-11-21T16:02:12;12.70;70.10
8103;DHT22;4094;49.948;11.574;2023-11-21T16:04:43;12.60;70.00
8103;DHT22;4094;49.948;11.574;2023-11-21T16:07:13;12.60;69.90
8103;DHT22;4094;49.948;11.574;2023-11-21T16:09:43;12.60;70.00